Time;durP1;ratioP1;P1;durP2;ratioP2;P2;SDS_P1;SDS_P2;PMS_P1;PMS_P2;Temp;Humidity;BMP_temperature;BMP_pressure;BME280_temperature;BME280_humidity;BME280_pressure;Samples;Min_cycle;Max_cycle;Signal;HPM_P1;HPM_P2
2022/05/07 00:02:19;;;;;;;7.37;3.80;;;;;;;15.60;50.33;98510.66;8519559;27;20232;-72
2022/05/07 00:06:22;;;;;;;6.73;3.87;;;;;;;15.60;50.08;98508.06;8519076;27;20290;-72
2022/05/07 00:10:25;;;;;;;7.33;3.60;;;;;;;15.48;50.54;98511.34;8519061;27;20419;-72
2022/05/07 00:14:27;;;;;;;5.70;3.37;;;;;;;15.42;50.70;98510.78;8518878;27;20233;-72
2022/05/07 00:18:32;;;;;;;7.07;3.53;;;;;;;15.33;50.67;98498.22;8518949;27;20233;-72
2022/05/07 00:22:35;;;;;;;6.00;4.03;;;;;;;15.33;50.32;98505.22;8519002;27;20233;-73
2022/05/07 00:26:38;;;;;;;6.70;3.83;;;;;;;15.28;50.75;98500.25;8517999;27;20239;-72
2022/05/07 00:30:41;;;;;;;6.97;3.67;;;;;;;15.18;50.71;98499.91;8518499;27;20228;-72
2022/05/07 00:34:45;;;;;;;4.30;3.30;;;;;;;15.16;50.92;98491.31;8518551;27;20224;-73
2022/05/07 00:38:48;;;;;;;6.90;3.77;;;;;;;15.11;51.23;98495.13;8518414;27;20235;-73
2022/05/07 00:42:51;;;;;;;4.03;3.37;;;;;;;15.10;51.05;98493.41;8518064;27;20232;-73
2022/05/07 00:46:54;;;;;;;5.30;3.57;;;;;;;15.07;51.43;98480.56;8517970;27;20270;-73
2022/05/07 00:55:19;;;;;;;6.93;3.77;;;;;;;14.86;51.32;98480.78;8517642;27;20535;-73
2022/05/07 00:59:22;;;;;;;7.80;3.83;;;;;;;14.74;51.47;98482.28;8517343;27;20538;-73
2022/05/07 01:03:26;;;;;;;6.43;3.43;;;;;;;14.61;51.66;98469.06;8517676;27;20229;-73
2022/05/07 01:07:30;;;;;;;8.23;3.50;;;;;;;14.75;51.54;98472.69;8517478;27;20432;-73
2022/05/07 01:11:33;;;;;;;6.83;3.60;;;;;;;14.59;52.17;98477.88;8517016;27;20244;-73
2022/05/07 01:15:43;;;;;;;6.27;3.70;;;;;;;14.58;51.76;98474.44;8517060;27;20232;-73
2022/05/07 01:19:46;;;;;;;6.87;3.20;;;;;;;14.50;51.93;98476.56;8516871;27;20229;-73
2022/05/07 01:23:51;;;;;;;4.73;3.30;;;;;;;14.50;51.67;98479.16;8516826;27;20221;-73
2022/05/07 01:27:54;;;;;;;4.20;3.20;;;;;;;14.46;51.67;98470.66;8516705;27;20416;-73
2022/05/07 01:31:57;;;;;;;5.33;3.30;;;;;;;14.43;51.77;98473.44;8516669;27;20428;-73
2022/05/07 01:36:02;;;;;;;6.20;3.57;;;;;;;14.28;51.80;98469.88;8516430;27;20424;-73
2022/05/07 01:40:08;;;;;;;4.07;3.60;;;;;;;14.24;52.06;98475.28;8515523;27;20229;-73
2022/05/07 01:44:11;;;;;;;5.90;3.20;;;;;;;14.34;51.33;98478.28;8516347;27;20232;-73
2022/05/07 01:48:14;;;;;;;3.63;3.10;;;;;;;14.19;51.74;98478.16;8516261;27;20255;-73
2022/05/07 01:52:17;;;;;;;6.20;3.30;;;;;;;14.04;52.24;98478.91;8516102;27;20515;-73
2022/05/07 01:56:22;;;;;;;4.50;3.33;;;;;;;14.11;51.84;98479.44;8515753;27;20285;-73
2022/05/07 02:00:25;;;;;;;3.70;3.20;;;;;;;14.07;51.60;98479.63;8515495;27;20224;-73
2022/05/07 02:04:28;;;;;;;6.43;3.10;;;;;;;14.00;51.93;98480.84;8515805;27;20236;-73
2022/05/07 02:08:31;;;;;;;5.77;3.50;;;;;;;13.92;51.90;98476.91;8515485;27;20232;-72
2022/05/07 02:12:35;;;;;;;5.50;3.57;;;;;;;13.90;52.09;98477.03;8515357;27;20232;-73
2022/05/07 02:16:38;;;;;;;5.10;3.23;;;;;;;13.86;52.11;98470.28;8515690;27;20550;-73
2022/05/07 02:20:41;;;;;;;4.53;3.23;;;;;;;13.84;52.30;98477.28;8515501;27;20224;-73
2022/05/07 02:24:46;;;;;;;3.23;2.93;;;;;;;13.85;52.18;98482.44;8515212;27;20225;-73
2022/05/07 02:28:50;;;;;;;4.20;3.37;;;;;;;13.90;52.15;98474.41;8515252;27;20221;-73
2022/05/07 02:32:53;;;;;;;5.67;3.20;;;;;;;13.79;52.34;98472.34;8515126;27;20507;-73
2022/05/07 02:36:56;;;;;;;4.30;3.23;;;;;;;13.79;52.35;98477.53;8515119;27;20422;-73
2022/05/07 02:45:21;;;;;;;4.60;3.37;;;;;;;13.71;51.93;98484.03;8514887;27;20233;-73
2022/05/07 02:49:24;;;;;;;7.47;3.30;;;;;;;13.55;52.64;98476.97;8514573;27;20293;-73
2022/05/07 02:53:27;;;;;;;4.00;3.23;;;;;;;13.58;52.16;98470.78;8521359;27;20233;-73
2022/05/07 02:57:30;;;;;;;5.60;3.30;;;;;;;13.56;52.14;98467.41;8521484;27;20235;-73
2022/05/07 03:01:34;;;;;;;5.83;3.70;;;;;;;13.56;51.97;98475.22;8521531;27;20225;-73
2022/05/07 03:05:37;;;;;;;4.07;3.23;;;;;;;13.44;52.31;98474.03;8521495;27;20309;-73
2022/05/07 03:09:41;;;;;;;5.43;3.60;;;;;;;13.52;52.52;98479.72;8521452;27;20244;-73
2022/05/07 03:13:44;;;;;;;5.23;3.30;;;;;;;13.61;51.93;98481.91;8521061;27;20524;-73
2022/05/07 03:17:49;;;;;;;6.30;3.53;;;;;;;13.43;52.23;98474.97;8521056;27;20228;-73
2022/05/07 03:21:52;;;;;;;6.07;3.30;;;;;;;13.47;52.20;98477.34;8520973;27;20286;-73
2022/05/07 03:25:55;;;;;;;7.27;3.43;;;;;;;13.53;52.25;98481.41;8520626;27;20237;-73
2022/05/07 03:29:58;;;;;;;7.47;3.50;;;;;;;13.51;51.85;98479.81;8520503;27;20235;-73
2022/05/07 03:34:04;;;;;;;6.03;3.50;;;;;;;13.60;51.87;98479.38;8520387;27;20423;-73
2022/05/07 03:38:07;;;;;;;7.30;3.43;;;;;;;13.46;52.27;98483.47;8520372;27;20248;-74
2022/05/07 03:42:10;;;;;;;6.60;3.40;;;;;;;13.41;52.48;98477.63;8520162;27;20241;-73
2022/05/07 03:46:13;;;;;;;4.67;3.50;;;;;;;13.42;52.03;98484.53;8519893;27;20235;-73
2022/05/07 03:50:17;;;;;;;5.73;3.43;;;;;;;13.35;51.89;98482.31;8519979;27;20229;-73
2022/05/07 03:54:20;;;;;;;4.17;3.40;;;;;;;13.27;52.05;98478.28;8519789;27;20225;-73
2022/05/07 03:58:25;;;;;;;5.43;3.40;;;;;;;13.14;52.08;98481.53;8519389;27;20392;-73
2022/05/07 04:02:30;;;;;;;4.23;3.50;;;;;;;13.22;52.12;98479.41;8518277;27;20236;-73
2022/05/07 04:06:34;;;;;;;7.67;3.40;;;;;;;13.10;51.82;98479.06;8519553;27;20545;-73
2022/05/07 04:10:37;;;;;;;4.97;3.50;;;;;;;13.11;51.99;98480.72;8519182;27;20243;-72
2022/05/07 04:14:41;;;;;;;4.17;3.03;;;;;;;13.09;52.19;98484.31;8519118;27;20239;-73
2022/05/07 04:18:45;;;;;;;4.73;3.30;;;;;;;13.14;52.18;98491.91;8519103;27;20221;-73
2022/05/07 04:22:49;;;;;;;5.17;3.30;;;;;;;13.09;52.32;98492.13;8519046;27;20415;-73
2022/05/07 04:26:52;;;;;;;5.47;3.43;;;;;;;13.13;52.14;98493.66;8518907;27;20227;-73
2022/05/07 04:30:55;;;;;;;5.30;3.30;;;;;;;13.05;52.66;98499.22;8518780;27;20515;-73
2022/05/07 04:34:59;;;;;;;5.87;3.60;;;;;;;13.02;52.27;98501.97;8518593;27;20229;-73
2022/05/07 04:39:03;;;;;;;4.70;3.10;;;;;;;13.05;52.64;98501.81;8518478;27;20239;-73
2022/05/07 04:43:06;;;;;;;7.23;3.73;;;;;;;13.11;52.66;98498.09;8518382;27;20225;-72
2022/05/07 04:47:09;;;;;;;3.83;3.37;;;;;;;13.18;52.63;98504.69;8517978;27;20224;-73
2022/05/07 04:51:12;;;;;;;5.83;3.40;;;;;;;13.13;52.81;98505.81;8518121;27;20539;-73
2022/05/07 04:55:37;;;;;;;3.53;3.03;;;;;;;13.19;52.16;98506.38;8517465;27;20430;-72
2022/05/07 04:59:40;;;;;;;6.97;3.57;;;;;;;13.20;52.43;98512.44;8517921;27;20229;-73
2022/05/07 05:03:42;;;;;;;5.97;3.57;;;;;;;13.19;52.53;98510.72;8517669;27;20221;-73
2022/05/07 05:07:45;;;;;;;4.23;3.50;;;;;;;13.28;52.84;98508.53;8517317;27;20228;-73
2022/05/07 05:11:55;;;;;;;5.33;3.47;;;;;;;13.28;52.98;98508.53;8517261;27;20228;-73
2022/05/07 05:15:59;;;;;;;6.20;3.50;;;;;;;13.42;52.98;98504.47;8517034;27;20237;-73
2022/05/07 05:20:03;;;;;;;6.80;3.90;;;;;;;13.46;52.97;98511.22;8517225;27;20519;-73
2022/05/07 05:24:06;;;;;;;4.30;3.90;;;;;;;13.44;53.07;98518.25;8517095;27;20228;-72
2022/05/07 05:28:11;;;;;;;4.27;3.80;;;;;;;13.66;53.06;98521.53;8516879;27;20235;-73
2022/05/07 05:32:17;;;;;;;6.77;4.23;;;;;;;13.81;53.28;98526.94;8516786;27;20295;-72
2022/05/07 05:36:23;;;;;;;7.57;4.73;;;;;;;13.82;53.28;98533.81;8516150;27;20233;-72
2022/05/07 05:40:27;;;;;;;9.73;5.20;;;;;;;13.88;53.47;98538.75;8516228;27;20228;-72
2022/05/07 05:44:31;;;;;;;7.63;4.97;;;;;;;14.04;53.27;98538.81;8516330;27;20551;-72
2022/05/07 05:48:34;;;;;;;7.97;5.13;;;;;;;14.31;53.35;98554.81;8515864;27;20542;-72
2022/05/07 05:52:37;;;;;;;8.33;5.07;;;;;;;14.61;52.43;98543.81;8515782;27;20235;-72
2022/05/07 05:56:40;;;;;;;8.07;5.27;;;;;;;14.75;52.34;98550.91;8515889;27;20232;-72
2022/05/07 06:00:45;;;;;;;6.37;4.90;;;;;;;14.76;52.17;98550.00;8515852;27;20220;-72
2022/05/07 06:04:48;;;;;;;6.23;4.70;;;;;;;15.12;52.05;98547.19;8515835;27;20231;-73
2022/05/07 06:08:52;;;;;;;7.50;4.13;;;;;;;14.89;52.50;98548.44;8515768;27;20231;-72
2022/05/07 06:12:55;;;;;;;6.33;4.70;;;;;;;15.28;52.52;98548.97;8515326;27;20235;-72
2022/05/07 06:16:59;;;;;;;6.47;4.10;;;;;;;15.34;52.24;98549.47;8515331;27;20565;-73
2022/05/07 06:21:03;;;;;;;5.50;3.70;;;;;;;15.98;51.21;98545.09;8515374;27;20244;-72
2022/05/07 06:29:27;;;;;;;4.90;3.50;;;;;;;16.66;48.88;98551.59;8514825;27;20245;-72
2022/05/07 06:33:32;;;;;;;4.00;3.60;;;;;;;16.70;49.14;98550.47;8514886;27;20228;-73
2022/05/07 06:37:37;;;;;;;4.40;3.63;;;;;;;17.12;48.29;98542.75;8514961;27;20236;-72
2022/05/07 06:41:40;;;;;;;3.73;3.33;;;;;;;17.32;48.47;98550.19;8514927;27;20224;-73
2022/05/07 06:45:43;;;;;;;5.37;3.67;;;;;;;17.56;48.21;98549.59;8514957;27;20285;-73
2022/05/07 06:49:47;;;;;;;4.97;2.97;;;;;;;17.71;46.85;98545.16;8514985;27;20240;-73
2022/05/07 06:53:50;;;;;;;4.23;3.10;;;;;;;17.82;46.64;98547.06;8514837;27;20224;-73
2022/05/07 06:57:53;;;;;;;6.50;3.23;;;;;;;18.04;46.25;98546.53;8514703;27;20228;-73
2022/05/07 07:02:17;;;;;;;5.43;3.00;;;;;;;18.11;44.28;98547.81;8514772;27;20235;-73
2022/05/07 07:06:21;;;;;;;6.23;2.60;;;;;;;18.34;43.72;98552.38;8514593;27;20235;-73
2022/05/07 07:10:24;;;;;;;6.27;3.03;;;;;;;18.36;44.04;98549.66;8514243;27;20237;-73
2022/05/07 07:14:27;;;;;;;3.90;2.80;;;;;;;18.62;44.65;98547.91;8514200;27;20266;-73
2022/05/07 07:18:31;;;;;;;4.17;2.50;;;;;;;18.95;43.64;98554.41;8514031;27;20269;-73
2022/05/07 07:22:36;;;;;;;5.53;3.03;;;;;;;19.02;42.93;98542.56;8514262;27;20229;-73
2022/05/07 07:26:38;;;;;;;6.17;3.20;;;;;;;19.18;42.16;98541.47;8514224;27;20430;-73
2022/05/07 07:30:42;;;;;;;6.90;3.30;;;;;;;19.40;42.20;98540.78;8514341;27;27768;-73
2022/05/07 07:34:45;;;;;;;8.97;3.30;;;;;;;19.53;41.44;98537.19;8514243;27;20224;-73
2022/05/07 07:38:50;;;;;;;8.27;3.83;;;;;;;19.74;40.52;98536.56;8519260;27;20535;-73
2022/05/07 07:42:53;;;;;;;5.47;2.83;;;;;;;20.05;40.99;98534.34;8520264;27;20236;-72
2022/05/07 07:51:18;;;;;;;7.93;4.00;;;;;;;20.50;39.91;98534.44;8519898;27;20228;-73
2022/05/07 07:55:23;;;;;;;4.37;3.10;;;;;;;20.73;40.38;98535.34;8519836;27;20228;-72
2022/05/07 07:59:27;;;;;;;6.03;3.20;;;;;;;20.81;39.39;98537.38;8519457;27;20233;-72
2022/05/07 08:03:30;;;;;;;5.13;3.13;;;;;;;21.21;39.62;98529.00;8519612;27;20229;-73
2022/05/07 08:11:56;;;;;;;8.20;3.17;;;;;;;21.70;37.68;98530.38;8519249;27;20416;-73
2022/05/07 08:15:59;;;;;;;8.40;3.30;;;;;;;22.00;37.81;98528.81;8519003;27;20538;-74
2022/05/07 08:20:02;;;;;;;5.93;3.67;;;;;;;22.21;36.20;98529.69;8519276;27;20246;-73
2022/05/07 08:24:06;;;;;;;9.27;3.70;;;;;;;21.47;37.15;98535.69;8518885;27;20232;-74
2022/05/07 08:28:11;;;;;;;5.90;3.40;;;;;;;21.53;36.82;98533.53;8518973;27;20236;-73
2022/05/07 08:32:19;;;;;;;4.23;2.97;;;;;;;21.74;37.20;98526.53;8518915;27;20249;-73
2022/05/07 08:36:22;;;;;;;5.00;3.30;;;;;;;22.62;37.59;98532.47;8518364;27;20227;-74
2022/05/07 08:40:25;;;;;;;8.67;3.60;;;;;;;23.19;36.17;98524.97;8517976;27;20225;-72
2022/05/07 08:44:32;;;;;;;7.73;3.67;;;;;;;23.32;36.00;98525.56;8518355;27;20263;-72
2022/05/07 08:48:35;;;;;;;6.40;4.10;;;;;;;23.31;33.42;98526.53;8517613;27;20236;-72
2022/05/07 08:52:41;;;;;;;5.97;3.57;;;;;;;23.25;33.35;98524.44;8518011;27;20225;-72
2022/05/07 08:56:44;;;;;;;7.07;2.83;;;;;;;23.83;34.30;98533.47;8518021;27;20229;-73
2022/05/07 09:00:48;;;;;;;5.60;3.43;;;;;;;24.06;32.58;98529.56;8517816;27;20472;-73
2022/05/07 09:04:56;;;;;;;7.73;3.10;;;;;;;24.37;30.53;98529.41;8517758;27;20228;-73
2022/05/07 09:08:59;;;;;;;8.20;3.77;;;;;;;23.90;26.97;98524.00;8517547;27;20232;-74
2022/05/07 09:13:11;;;;;;;6.57;4.10;;;;;;;23.59;29.35;98524.09;8517233;27;20415;-72
2022/05/07 09:17:15;;;;;;;7.13;3.60;;;;;;;24.12;30.11;98525.50;8517116;27;20233;-72
2022/05/07 09:21:24;;;;;;;7.50;2.80;;;;;;;24.85;26.58;98531.13;8517214;27;20240;-72
2022/05/07 09:25:28;;;;;;;5.73;3.03;;;;;;;25.00;24.75;98526.19;8516585;27;20225;-71
2022/05/07 09:29:32;;;;;;;10.53;3.27;;;;;;;24.72;24.86;98520.00;8516868;27;20233;-72
2022/05/07 09:33:37;;;;;;;4.50;2.37;;;;;;;25.63;28.32;98506.88;8516825;27;20229;-73
2022/05/07 09:37:40;;;;;;;4.73;2.70;;;;;;;25.51;27.04;98516.00;8516598;27;20248;-72
2022/05/07 09:41:44;;;;;;;5.83;2.40;;;;;;;26.01;25.19;98509.38;8516609;27;20228;-73
2022/05/07 09:45:47;;;;;;;4.63;3.20;;;;;;;25.84;27.33;98501.25;8516401;27;20514;-73
2022/05/07 09:58:33;;;;;;;5.00;2.90;;;;;;;24.57;29.12;98501.91;8515773;27;20237;-72
2022/05/07 10:02:58;;;;;;;4.07;3.13;;;;;;;23.97;29.69;98498.66;8515215;27;23379;-72
2022/05/07 10:07:19;;;;;;;7.10;3.20;;;;;;;23.88;29.09;98495.03;8515977;27;20240;-73
2022/05/07 10:11:22;;;;;;;6.27;2.70;;;;;;;23.86;29.42;98491.72;8515365;27;20235;-73
2022/05/07 10:15:27;;;;;;;7.50;2.80;;;;;;;24.97;28.03;98497.31;8515684;27;20391;-73
2022/05/07 10:19:35;;;;;;;3.97;2.30;;;;;;;25.41;27.12;98488.75;8515638;27;20234;-73
2022/05/07 10:23:49;;;;;;;5.23;2.47;;;;;;;26.10;27.68;98490.75;8514886;27;20229;-73
2022/05/07 10:27:53;;;;;;;6.33;2.60;;;;;;;24.98;27.71;98478.63;8515142;27;20249;-73
2022/05/07 10:32:03;;;;;;;9.90;2.87;;;;;;;25.72;27.34;98481.25;8515175;27;20412;-73
2022/05/07 10:36:09;;;;;;;6.30;3.13;;;;;;;26.02;26.26;98484.53;8515054;27;20239;-74
2022/05/07 10:40:28;;;;;;;7.50;2.60;;;;;;;26.16;26.17;98476.03;8514894;27;20298;-74
2022/05/07 10:44:31;;;;;;;7.67;2.90;;;;;;;25.45;26.76;98467.06;8514678;27;20228;-71
2022/05/07 10:48:45;;;;;;;7.57;2.90;;;;;;;24.35;27.35;98466.03;8515054;27;20229;-73
2022/05/07 10:52:55;;;;;;;5.43;2.97;;;;;;;24.65;27.32;98469.41;8515036;27;20297;-74
2022/05/07 10:57:00;;;;;;;7.67;2.70;;;;;;;25.92;27.46;98466.88;8514916;27;20503;-74
2022/05/07 11:01:03;;;;;;;4.57;2.90;;;;;;;25.87;27.45;98469.09;8514699;27;20234;-74
2022/05/07 11:05:07;;;;;;;5.07;2.80;;;;;;;25.00;27.03;98456.44;8514856;27;20224;-74
2022/05/07 11:09:15;;;;;;;7.20;2.63;;;;;;;24.23;27.41;98466.31;8514782;27;20229;-73
2022/05/07 11:13:25;;;;;;;6.17;3.00;;;;;;;25.89;26.14;98461.00;8519167;27;20233;-72
2022/05/07 11:17:32;;;;;;;5.53;3.00;;;;;;;25.53;25.78;98453.91;8520695;27;20236;-72
2022/05/07 11:21:37;;;;;;;7.20;2.60;;;;;;;25.30;25.74;98442.06;8520950;27;20290;-72
2022/05/07 11:25:45;;;;;;;4.43;2.53;;;;;;;24.63;26.17;98452.84;8520831;27;20231;-73
2022/05/07 11:29:49;;;;;;;6.87;2.67;;;;;;;25.00;26.68;98446.69;8520785;27;20225;-72
2022/05/07 11:34:00;;;;;;;7.03;2.80;;;;;;;25.83;25.41;98443.06;8520742;27;20225;-72
2022/05/07 11:38:12;;;;;;;8.17;2.50;;;;;;;25.94;27.40;98448.97;8520563;27;20230;-73
2022/05/07 11:42:32;;;;;;;6.60;2.90;;;;;;;24.40;26.11;98447.88;8520508;27;20228;-73
2022/05/07 11:46:57;;;;;;;4.23;2.47;;;;;;;24.09;28.44;98439.34;8519902;27;20250;-73
2022/05/07 11:51:01;;;;;;;6.67;2.83;;;;;;;25.66;26.89;98445.56;8520319;27;20243;-73
2022/05/07 11:55:06;;;;;;;4.60;2.23;;;;;;;25.93;24.97;98436.72;8519942;27;20572;-73
2022/05/07 11:59:08;;;;;;;8.03;2.70;;;;;;;26.11;25.42;98439.31;8519639;27;20427;-73
2022/05/07 12:03:17;;;;;;;4.87;2.50;;;;;;;26.47;24.57;98436.56;8519632;27;20547;-73
2022/05/07 12:07:20;;;;;;;4.63;2.50;;;;;;;27.02;24.33;98421.22;8519763;27;20428;-73
2022/05/07 12:11:24;;;;;;;4.87;2.33;;;;;;;26.13;25.04;98421.41;8518952;27;20507;-72
2022/05/07 12:19:46;;;;;;;5.97;2.40;;;;;;;24.77;27.58;98417.97;8518959;27;20537;-73
2022/05/07 12:32:29;;;;;;;5.93;2.60;;;;;;;24.21;27.09;98413.53;8518274;27;20233;-73
2022/05/07 12:36:34;;;;;;;6.40;2.60;;;;;;;25.43;26.09;98408.06;8518464;27;20240;-73
2022/05/07 12:40:37;;;;;;;5.53;2.37;;;;;;;26.16;23.95;98403.50;8518230;27;20231;-73
2022/05/07 12:44:43;;;;;;;4.23;2.40;;;;;;;26.34;24.17;98396.31;8518252;27;20231;-72
2022/05/07 12:48:46;;;;;;;5.30;2.17;;;;;;;25.53;25.09;98392.06;8518139;27;20227;-73
2022/05/07 12:52:50;;;;;;;5.00;2.30;;;;;;;25.64;25.78;98405.09;8518155;27;20506;-73
2022/05/07 12:56:53;;;;;;;5.50;2.57;;;;;;;24.95;24.29;98385.38;8518084;27;20221;-73
2022/05/07 13:00:57;;;;;;;5.13;2.27;;;;;;;25.92;25.72;98394.41;8517742;27;20243;-73
2022/05/07 13:05:00;;;;;;;5.00;2.20;;;;;;;26.05;22.83;98389.53;8517762;27;20234;-73
2022/05/07 13:09:04;;;;;;;4.27;2.17;;;;;;;26.52;24.38;98380.28;8517409;27;20246;-73
2022/05/07 13:13:07;;;;;;;5.57;2.07;;;;;;;26.02;25.34;98387.16;8517392;27;20240;-73
2022/05/07 13:17:10;;;;;;;6.07;2.00;;;;;;;24.98;24.31;98377.13;8517394;27;20243;-73
2022/05/07 13:21:13;;;;;;;3.00;2.20;;;;;;;24.73;25.48;98382.16;8517243;27;20244;-73
2022/05/07 13:25:19;;;;;;;4.43;2.10;;;;;;;24.62;26.55;98368.25;8517324;27;20234;-73
2022/05/07 13:29:22;;;;;;;7.67;2.17;;;;;;;24.50;25.98;98364.94;8516660;27;20225;-73
2022/05/07 13:33:25;;;;;;;9.17;2.53;;;;;;;24.95;23.86;98358.88;8516744;27;20238;-72
2022/05/07 13:37:28;;;;;;;4.57;2.17;;;;;;;24.30;24.40;98364.22;8516572;27;20521;-73
2022/05/07 13:41:32;;;;;;;4.10;1.93;;;;;;;24.59;23.45;98358.81;8516599;27;20232;-72
2022/05/07 13:45:35;;;;;;;8.07;2.37;;;;;;;25.56;25.18;98355.47;8516355;27;20233;-73
2022/05/07 13:49:41;;;;;;;4.70;2.10;;;;;;;25.68;23.29;98352.59;8516222;27;20253;-73
2022/05/07 13:53:44;;;;;;;4.77;2.20;;;;;;;26.19;24.59;98350.94;8516039;27;20228;-73
2022/05/07 13:57:48;;;;;;;3.33;2.00;;;;;;;25.92;24.50;98354.63;8516182;27;20225;-73
2022/05/07 14:01:51;;;;;;;3.10;2.10;;;;;;;24.38;23.94;98343.97;8516069;27;20239;-73
2022/05/07 14:05:54;;;;;;;5.30;2.07;;;;;;;24.31;25.09;98334.13;8516103;27;20532;-73
2022/05/07 14:09:57;;;;;;;3.90;2.43;;;;;;;24.17;26.52;98336.25;8515660;27;20236;-73
2022/05/07 14:14:03;;;;;;;3.43;2.00;;;;;;;23.98;27.35;98334.50;8515666;27;20438;-73
2022/05/07 14:18:06;;;;;;;5.67;2.03;;;;;;;23.60;27.22;98332.78;8515704;27;20232;-73
2022/05/07 14:22:09;;;;;;;5.00;2.50;;;;;;;23.43;26.65;98340.44;8515586;27;20292;-73
2022/05/07 14:26:12;;;;;;;4.53;2.00;;;;;;;23.59;26.63;98328.47;8515628;27;20239;-73
2022/05/07 14:30:18;;;;;;;3.90;2.37;;;;;;;24.51;25.32;98326.94;8515453;27;20239;-73
2022/05/07 14:34:22;;;;;;;3.83;2.20;;;;;;;25.22;25.18;98323.53;8514981;27;20228;-73
2022/05/07 14:38:25;;;;;;;3.93;2.10;;;;;;;25.38;24.70;98316.72;8514641;27;20230;-72
2022/05/07 14:42:28;;;;;;;6.23;2.10;;;;;;;25.37;24.55;98315.91;8515139;27;20231;-73
2022/05/07 14:46:32;;;;;;;2.97;2.00;;;;;;;25.80;25.21;98313.38;8516398;27;20235;-73
2022/05/07 14:50:36;;;;;;;5.87;2.40;;;;;;;25.91;24.80;98314.00;8522176;27;20444;-73
2022/05/07 14:54:39;;;;;;;4.43;2.07;;;;;;;25.90;24.39;98317.59;8522117;27;20253;-73
2022/05/07 14:58:42;;;;;;;5.53;1.90;;;;;;;25.17;25.48;98313.41;8521613;27;20241;-73
2022/05/07 15:02:48;;;;;;;6.43;2.60;;;;;;;24.44;25.16;98307.31;8521693;27;20224;-74
2022/05/07 15:06:51;;;;;;;3.57;2.20;;;;;;;24.39;26.85;98313.06;8521689;27;20224;-74
2022/05/07 15:10:54;;;;;;;5.47;2.33;;;;;;;23.99;26.06;98312.38;8521666;27;20426;-73
2022/05/07 15:14:58;;;;;;;3.80;1.90;;;;;;;23.85;26.81;98298.78;8521245;27;20234;-73
2022/05/07 15:19:03;;;;;;;3.63;1.83;;;;;;;23.79;27.13;98308.13;8521127;27;20233;-73
2022/05/07 15:23:06;;;;;;;7.23;2.00;;;;;;;24.13;26.61;98299.66;8521343;27;20483;-73
2022/05/07 15:27:10;;;;;;;3.50;1.73;;;;;;;24.67;25.90;98299.81;8521148;27;20229;-73
2022/05/07 15:31:13;;;;;;;4.03;2.00;;;;;;;24.75;25.61;98297.25;8520937;27;20238;-73
2022/05/07 15:39:39;;;;;;;3.90;1.90;;;;;;;25.00;24.64;98286.88;8520327;27;20225;-73
2022/05/07 15:43:42;;;;;;;4.93;2.40;;;;;;;25.04;24.37;98286.44;8520368;27;20418;-73
2022/05/07 15:47:45;;;;;;;4.40;1.97;;;;;;;25.13;24.96;98284.69;8520143;27;20539;-73
2022/05/07 15:51:51;;;;;;;3.83;1.73;;;;;;;24.70;25.75;98279.19;8520063;27;20398;-73
2022/05/07 15:55:54;;;;;;;7.17;2.20;;;;;;;24.46;24.78;98281.53;8520093;27;20238;-73
2022/05/07 16:00:10;;;;;;;6.13;1.90;;;;;;;24.53;24.84;98280.00;8518450;27;20230;-73
2022/05/07 16:04:14;;;;;;;5.43;2.00;;;;;;;24.52;26.02;98283.59;8519695;27;20251;-73
2022/05/07 16:08:18;;;;;;;5.53;1.73;;;;;;;24.07;25.33;98277.28;8519516;27;20240;-73
2022/05/07 16:12:21;;;;;;;4.10;1.83;;;;;;;24.13;25.78;98279.31;8519275;27;20233;-73
2022/05/07 16:16:24;;;;;;;2.70;1.57;;;;;;;24.07;24.76;98285.22;8518809;27;20238;-73
2022/05/07 16:20:28;;;;;;;4.53;1.87;;;;;;;23.89;24.72;98277.19;8519013;27;20285;-73
2022/05/07 16:25:00;;;;;;;4.43;2.00;;;;;;;23.96;25.42;98277.47;8518822;27;20237;-73
2022/05/07 16:29:04;;;;;;;4.20;1.53;;;;;;;23.92;25.35;98279.56;8518760;27;20255;-73
2022/05/07 16:33:07;;;;;;;3.97;1.70;;;;;;;23.75;25.97;98272.34;8518632;27;20241;-73
2022/05/07 16:37:10;;;;;;;4.23;1.70;;;;;;;23.71;25.79;98271.81;8518567;27;20233;-73
2022/05/07 16:41:15;;;;;;;2.20;1.43;;;;;;;23.72;25.47;98270.00;8518379;27;20240;-73
2022/05/07 16:45:18;;;;;;;2.80;1.40;;;;;;;23.65;25.43;98266.28;8518100;27;20237;-73
2022/05/07 16:49:21;;;;;;;2.77;1.60;;;;;;;23.56;25.99;98273.25;8518121;27;20237;-73
2022/05/07 16:53:25;;;;;;;2.63;1.67;;;;;;;23.56;27.29;98268.78;8517506;27;20236;-73
2022/05/07 16:57:29;;;;;;;5.80;1.80;;;;;;;23.35;26.67;98274.25;8517637;27;20229;-73
2022/05/07 17:01:32;;;;;;;3.53;1.80;;;;;;;23.32;25.95;98271.91;8517558;27;20233;-73
2022/05/07 17:05:35;;;;;;;4.00;2.27;;;;;;;23.11;25.86;98279.13;8517542;27;20419;-73
2022/05/07 17:09:41;;;;;;;3.13;1.87;;;;;;;23.03;25.54;98279.84;8516878;27;20235;-73
2022/05/07 17:13:45;;;;;;;2.70;1.80;;;;;;;23.03;26.36;98283.31;8517346;27;20431;-73
2022/05/07 17:17:48;;;;;;;3.30;1.73;;;;;;;22.92;26.62;98280.75;8516954;27;20231;-73
2022/05/07 17:21:51;;;;;;;4.63;1.60;;;;;;;22.92;26.78;98288.69;8516832;27;20245;-73
2022/05/07 17:25:54;;;;;;;7.07;2.00;;;;;;;22.89;27.41;98288.97;8516840;27;20228;-73
2022/05/07 17:29:58;;;;;;;4.40;1.63;;;;;;;22.76;27.51;98283.97;8516706;27;20229;-73
2022/05/07 17:34:03;;;;;;;2.90;1.33;;;;;;;22.70;26.92;98284.53;8516550;27;20427;-73
2022/05/07 17:38:06;;;;;;;4.13;1.43;;;;;;;22.65;27.48;98284.09;8516461;27;20426;-73
2022/05/07 17:42:10;;;;;;;3.20;1.60;;;;;;;22.57;28.13;98283.94;8516316;27;20236;-72
2022/05/07 17:46:14;;;;;;;4.13;1.60;;;;;;;22.54;28.49;98286.84;8516222;27;20286;-72
2022/05/07 17:50:17;;;;;;;3.27;1.73;;;;;;;22.35;28.73;98283.22;8515871;27;20236;-72
2022/05/07 17:54:21;;;;;;;3.50;1.50;;;;;;;22.31;28.84;98288.88;8516065;27;20524;-73
2022/05/07 17:58:24;;;;;;;2.43;1.60;;;;;;;22.21;28.71;98279.09;8515480;27;20232;-72
2022/05/07 18:02:28;;;;;;;4.30;1.80;;;;;;;22.19;29.44;98281.03;8515565;27;20240;-73
2022/05/07 18:06:32;;;;;;;3.73;1.90;;;;;;;22.02;30.05;98295.66;8515553;27;20235;-73
2022/05/07 18:10:35;;;;;;;5.73;1.77;;;;;;;22.04;30.56;98287.63;8515403;27;20242;-73
2022/05/07 18:14:39;;;;;;;3.10;1.60;;;;;;;21.99;30.85;98293.31;8515385;27;20228;-73
2022/05/07 18:18:44;;;;;;;2.37;1.60;;;;;;;21.86;30.95;98295.34;8515299;27;20242;-72
2022/05/07 18:22:47;;;;;;;5.50;1.67;;;;;;;21.74;31.19;98293.72;8514472;27;20228;-73
2022/05/07 18:26:50;;;;;;;2.97;1.60;;;;;;;21.71;31.72;98301.91;8515004;27;20224;-73
2022/05/07 18:30:53;;;;;;;2.27;1.47;;;;;;;21.54;31.28;98305.97;8515136;27;20230;-73
2022/05/07 18:34:58;;;;;;;3.63;2.10;;;;;;;21.51;31.08;98311.50;8514913;27;20527;-73
2022/05/07 18:43:22;;;;;;;3.03;1.87;;;;;;;21.27;31.50;98313.38;8514726;27;20240;-74
2022/05/07 18:47:25;;;;;;;4.67;1.90;;;;;;;21.02;31.75;98306.69;8514502;27;20420;-73
2022/05/07 18:51:30;;;;;;;8.13;1.90;;;;;;;21.13;31.64;98308.41;8514776;27;20241;-73
2022/05/07 18:59:53;;;;;;;3.37;1.60;;;;;;;21.01;32.49;98312.06;8514704;27;20238;-74
2022/05/07 19:03:57;;;;;;;5.03;2.03;;;;;;;20.98;31.94;98323.69;8514585;27;20335;-73
2022/05/07 19:08:01;;;;;;;4.13;1.80;;;;;;;20.76;31.50;98331.66;8514453;27;20227;-74
2022/05/07 19:12:05;;;;;;;7.87;2.20;;;;;;;20.44;34.25;98338.47;8514595;27;20233;-73
2022/05/07 19:16:09;;;;;;;4.67;2.07;;;;;;;20.54;33.93;98333.31;8514469;27;20229;-73
2022/05/07 19:20:12;;;;;;;5.43;2.03;;;;;;;20.60;33.02;98329.38;8514256;27;20228;-73
2022/05/07 19:24:17;;;;;;;10.60;3.10;;;;;;;20.31;33.21;98341.25;8514462;27;20231;-73
2022/05/07 19:28:23;;;;;;;8.47;3.17;;;;;;;19.99;34.95;98346.38;8514399;27;20225;-73
2022/05/07 19:32:26;;;;;;;6.70;3.37;;;;;;;19.89;36.11;98355.91;8515218;27;20233;-73
2022/05/07 19:36:31;;;;;;;9.37;3.40;;;;;;;20.11;36.59;98365.63;8520454;27;20237;-73
2022/05/07 19:40:48;;;;;;;6.97;3.60;;;;;;;20.15;37.29;98366.22;8520319;27;20231;-73
2022/05/07 19:44:53;;;;;;;6.77;4.30;;;;;;;20.15;37.50;98374.94;8520308;27;20240;-73
2022/05/07 19:48:56;;;;;;;7.53;4.33;;;;;;;19.92;38.59;98374.06;8520095;27;20229;-72
2022/05/07 19:53:01;;;;;;;5.83;4.60;;;;;;;19.92;38.97;98385.41;8520211;27;20265;-73
2022/05/07 19:57:07;;;;;;;9.97;4.90;;;;;;;19.73;39.54;98379.91;8520091;27;20420;-73
2022/05/07 20:01:10;;;;;;;7.53;4.83;;;;;;;19.88;39.74;98383.16;8519875;27;20235;-72
2022/05/07 20:05:33;;;;;;;7.57;5.50;;;;;;;19.83;40.48;98390.53;8519308;27;20222;-73
2022/05/07 20:09:37;;;;;;;11.13;6.50;;;;;;;19.68;41.00;98387.25;8519659;27;20327;-73